Balneario El Condor, Argentina
Current Conditions -  °F | °C
As of 12:00 AM on Saturday 22 Nov 2014 (Local Time) from SAZN Reporting Station
Clear Clear  
Wind Chill: 59°   Ceiling: Unl
Heat Index: 59°   Visibility: 6mi
Dew Point: 48°   Wind: 0mph
Humidity: 67%   Direction: NA
Pressure: 29.94"   Gusts: NA
Location:  40.88°S, 63.14°W
Report Text: SAZN 220300Z 00000KT CAVOK 15/09 Q1014
Loading
Personal Weather Stations






























Interactive Weather Map New forecast layout! Learn more

10-Day Weather Forecast

Advertisements
Track Severe Weather on mobile